createdAt,value
2023-01-12T00:01:55.827Z,100.00
2023-01-12T00:04:22.922Z,100.00
2023-01-12T00:06:49.809Z,100.00
2023-01-12T00:09:16.569Z,100.00
2023-01-12T00:11:43.606Z,100.00
2023-01-12T00:14:10.451Z,100.00
2023-01-12T00:16:38.042Z,100.00
2023-01-12T00:19:17.425Z,100.00
2023-01-12T00:22:11.402Z,100.00
2023-01-12T00:24:44.529Z,100.00
2023-01-12T00:27:18.982Z,100.00
2023-01-12T00:29:45.846Z,100.00
2023-01-12T00:32:18.723Z,100.00
2023-01-12T00:34:45.671Z,100.00
2023-01-12T00:37:12.722Z,100.00
2023-01-12T00:39:43.025Z,100.00
2023-01-12T00:42:31.815Z,100.00
2023-01-12T00:45:16.955Z,100.00
2023-01-12T00:47:43.811Z,100.00
2023-01-12T00:50:10.869Z,100.00
2023-01-12T00:52:37.727Z,100.00
2023-01-12T00:55:04.922Z,100.00
2023-01-12T00:57:31.741Z,100.00
2023-01-12T00:59:59.927Z,100.00
2023-01-12T01:02:28.612Z,100.00
2023-01-12T01:04:56.479Z,100.00
2023-01-12T01:07:24.031Z,100.00
2023-01-12T01:09:51.440Z,100.00
2023-01-12T01:12:18.535Z,100.00
2023-01-12T01:14:46.884Z,100.00
2023-01-12T01:17:13.866Z,100.00
2023-01-12T01:19:40.698Z,100.00
2023-01-12T01:22:07.456Z,100.00
2023-01-12T01:24:34.239Z,100.00
2023-01-12T01:27:01.151Z,100.00
2023-01-12T01:29:27.903Z,100.00
2023-01-12T01:31:55.431Z,100.00
2023-01-12T01:34:23.775Z,100.00
2023-01-12T01:36:50.663Z,100.00
2023-01-12T01:39:17.454Z,100.00
2023-01-12T01:41:44.349Z,100.00
2023-01-12T01:44:29.608Z,100.00
2023-01-12T01:47:21.255Z,100.00
2023-01-12T01:49:51.597Z,100.00
2023-01-12T01:52:25.520Z,100.00
2023-01-12T01:55:16.525Z,100.00
2023-01-12T01:57:54.500Z,100.00
2023-01-12T02:00:22.007Z,100.00
2023-01-12T02:02:49.437Z,100.00
2023-01-12T02:05:22.514Z,100.00
2023-01-12T02:07:50.879Z,100.00
2023-01-12T02:10:18.337Z,100.00
2023-01-12T02:13:03.955Z,100.00
2023-01-12T02:16:03.776Z,100.00
2023-01-12T02:19:13.929Z,100.00
2023-01-12T02:21:40.571Z,100.00
2023-01-12T02:24:29.407Z,100.00
2023-01-12T02:27:27.379Z,100.00
2023-01-12T02:31:05.189Z,100.00
2023-01-12T02:33:51.453Z,100.00
2023-01-12T02:36:37.868Z,100.00
2023-01-12T02:39:29.851Z,100.00
2023-01-12T02:42:36.212Z,100.00
2023-01-12T02:45:47.714Z,100.00
2023-01-12T02:48:22.443Z,100.00
2023-01-12T02:51:05.763Z,100.00
2023-01-12T02:53:38.490Z,100.00
2023-01-12T02:56:07.479Z,100.00
2023-01-12T02:58:45.572Z,99.75
2023-01-12T03:01:15.397Z,100.00
2023-01-12T03:03:42.960Z,100.00
2023-01-12T03:06:09.985Z,100.00
2023-01-12T03:08:39.821Z,100.00
2023-01-12T03:11:20.868Z,99.08
2023-01-12T03:13:51.548Z,100.00
2023-01-12T03:16:24.392Z,100.00
2023-01-12T03:19:09.490Z,99.54
2023-01-12T03:21:47.197Z,99.48
2023-01-12T03:24:26.396Z,99.39
2023-01-12T03:27:01.729Z,98.27
2023-01-12T03:29:41.124Z,99.33
2023-01-12T03:32:08.040Z,98.10
2023-01-12T03:34:36.045Z,98.82
2023-01-12T03:37:15.432Z,98.59
2023-01-12T03:39:59.930Z,98.95
2023-01-12T03:42:30.886Z,99.10
2023-01-12T03:45:39.860Z,99.11
2023-01-12T03:48:34.123Z,97.63
2023-01-12T03:51:14.567Z,97.82
2023-01-12T03:53:43.207Z,97.93
2023-01-12T03:56:12.507Z,98.06
2023-01-12T03:58:39.678Z,98.93
2023-01-12T04:01:06.737Z,97.27
2023-01-12T04:03:33.780Z,97.94
2023-01-12T04:06:00.604Z,98.52
2023-01-12T04:08:27.698Z,97.49
2023-01-12T04:10:54.547Z,96.78
2023-01-12T04:13:21.362Z,97.76
2023-01-12T04:15:48.733Z,98.88
2023-01-12T04:18:15.753Z,99.45
2023-01-12T04:20:42.551Z,99.94
2023-01-12T04:23:09.475Z,99.48
2023-01-12T04:25:36.581Z,99.47
2023-01-12T04:28:04.045Z,98.60
2023-01-12T04:30:33.157Z,99.08
2023-01-12T04:33:01.867Z,98.91
2023-01-12T04:35:28.689Z,99.47
2023-01-12T04:37:56.466Z,99.01
2023-01-12T04:40:23.296Z,97.66
2023-01-12T04:43:01.273Z,98.55
2023-01-12T04:45:37.139Z,97.46
2023-01-12T04:48:07.503Z,98.78
2023-01-12T04:50:34.445Z,99.00
2023-01-12T04:53:06.537Z,98.92
2023-01-12T04:55:35.983Z,99.89
2023-01-12T04:58:03.034Z,99.53
2023-01-12T05:00:30.023Z,98.50
2023-01-12T05:03:00.778Z,98.71
2023-01-12T05:05:28.724Z,100.00
2023-01-12T05:08:16.858Z,99.82
2023-01-12T05:10:43.645Z,98.24
2023-01-12T05:13:10.480Z,99.86
2023-01-12T05:15:37.264Z,100.00
2023-01-12T05:18:04.241Z,100.00
2023-01-12T05:20:30.989Z,100.00
2023-01-12T05:22:57.730Z,100.00
2023-01-12T05:25:26.702Z,100.00
2023-01-12T05:27:58.028Z,99.56
2023-01-12T05:30:30.653Z,100.00
2023-01-12T05:32:58.380Z,100.00
2023-01-12T05:35:25.141Z,100.00
2023-01-12T05:37:51.950Z,100.00
2023-01-12T05:40:18.839Z,100.00
2023-01-12T05:43:04.068Z,99.83
2023-01-12T05:45:30.808Z,99.74
2023-01-12T05:48:00.358Z,100.00
2023-01-12T05:50:27.504Z,100.00
2023-01-12T05:52:54.671Z,100.00
2023-01-12T05:55:21.865Z,98.61
2023-01-12T05:57:48.788Z,98.99
2023-01-12T06:00:16.301Z,100.00
2023-01-12T06:02:43.099Z,100.00
2023-01-12T06:05:10.784Z,100.00
2023-01-12T06:07:37.754Z,100.00
2023-01-12T06:10:05.673Z,99.25
2023-01-12T06:12:50.951Z,98.33
2023-01-12T06:15:17.812Z,99.35
2023-01-12T06:17:44.627Z,97.25
2023-01-12T06:20:16.843Z,96.78
2023-01-12T06:22:44.834Z,98.07
2023-01-12T06:25:12.760Z,97.63
2023-01-12T06:27:39.794Z,97.23
2023-01-12T06:30:08.999Z,97.21
2023-01-12T06:32:36.373Z,98.66
2023-01-12T06:35:14.202Z,97.27
2023-01-12T06:37:45.390Z,97.76
2023-01-12T06:40:13.213Z,98.05
2023-01-12T06:42:41.991Z,97.73
2023-01-12T06:45:10.500Z,96.18
2023-01-12T06:47:51.907Z,96.80
2023-01-12T06:50:18.813Z,96.58
2023-01-12T06:52:45.601Z,95.56
2023-01-12T06:55:12.380Z,97.41
2023-01-12T06:57:39.382Z,97.20
2023-01-12T07:00:07.494Z,98.16
2023-01-12T07:02:34.335Z,96.71
2023-01-12T07:05:01.113Z,95.90
2023-01-12T07:07:27.901Z,97.67
2023-01-12T07:09:54.727Z,97.24
2023-01-12T07:12:21.523Z,97.19
2023-01-12T07:14:48.292Z,98.28
2023-01-12T07:17:15.125Z,98.67
2023-01-12T07:19:42.264Z,97.90
2023-01-12T07:22:09.291Z,98.17
2023-01-12T07:24:36.574Z,97.04
2023-01-12T07:27:03.354Z,94.70
2023-01-12T07:29:30.240Z,96.32
2023-01-12T07:31:57.105Z,96.46
2023-01-12T07:34:24.058Z,95.29
2023-01-12T07:36:51.497Z,94.43
2023-01-12T07:39:18.331Z,94.94
2023-01-12T07:42:03.617Z,94.85
2023-01-12T07:44:30.478Z,95.41
2023-01-12T07:46:59.431Z,96.05
2023-01-12T07:49:26.762Z,93.11
2023-01-12T07:51:55.150Z,92.98
2023-01-12T07:54:22.821Z,91.99
2023-01-12T07:56:49.612Z,93.29
2023-01-12T07:59:17.561Z,93.09
2023-01-12T08:01:44.505Z,93.26
2023-01-12T08:04:11.510Z,91.26
2023-01-12T08:06:38.374Z,92.57
2023-01-12T08:09:05.402Z,92.81
2023-01-12T08:11:32.265Z,93.24
2023-01-12T08:13:59.573Z,93.14
2023-01-12T08:16:43.517Z,91.45
2023-01-12T08:19:20.697Z,91.87
2023-01-12T08:21:57.770Z,90.84
2023-01-12T08:24:34.934Z,92.23
2023-01-12T08:27:04.938Z,91.89
2023-01-12T08:29:42.040Z,89.23
2023-01-12T08:34:44.063Z,87.27
2023-01-12T08:37:14.710Z,87.41
2023-01-12T08:39:42.693Z,89.83
2023-01-12T08:42:09.933Z,89.58
2023-01-12T08:44:36.875Z,88.93
2023-01-12T08:47:05.798Z,87.90
2023-01-12T08:49:34.195Z,89.66
2023-01-12T08:52:01.126Z,91.01
2023-01-12T08:54:28.102Z,90.68
2023-01-12T08:56:54.919Z,90.85
2023-01-12T08:59:21.849Z,91.65
2023-01-12T09:01:49.029Z,90.59
2023-01-12T09:04:15.941Z,91.36
2023-01-12T09:06:45.165Z,91.45
2023-01-12T09:09:15.757Z,92.06
2023-01-12T09:11:43.878Z,92.40
2023-01-12T09:14:12.975Z,91.16
2023-01-12T09:16:40.698Z,91.32
2023-01-12T09:19:09.361Z,90.04
2023-01-12T09:21:39.314Z,90.79
2023-01-12T09:24:06.988Z,91.86
2023-01-12T09:26:40.541Z,90.41
2023-01-12T09:29:08.435Z,91.28
2023-01-12T09:31:37.335Z,91.13
2023-01-12T09:34:04.733Z,91.35
2023-01-12T09:36:35.465Z,91.72
2023-01-12T09:39:03.401Z,92.51
2023-01-12T09:41:58.798Z,93.03
2023-01-12T09:45:01.620Z,91.62
2023-01-12T09:48:01.182Z,92.40
2023-01-12T09:50:34.154Z,92.64
2023-01-12T09:53:42.112Z,93.78
2023-01-12T09:56:08.733Z,93.20
2023-01-12T09:59:20.571Z,92.66
2023-01-12T10:01:47.832Z,92.81
2023-01-12T10:04:15.179Z,93.99
2023-01-12T10:06:42.204Z,92.15
2023-01-12T10:09:19.563Z,88.81
2023-01-12T10:12:11.195Z,90.74
2023-01-12T10:15:16.455Z,90.91
2023-01-12T10:17:54.416Z,92.17
2023-01-12T10:20:38.037Z,90.24
2023-01-12T10:23:07.703Z,89.30
2023-01-12T10:25:50.930Z,90.74
2023-01-12T10:28:30.535Z,90.85
2023-01-12T10:30:58.019Z,90.83
2023-01-12T10:33:36.011Z,90.48
2023-01-12T10:36:16.381Z,90.87
2023-01-12T10:38:52.343Z,92.56
2023-01-12T10:41:26.165Z,92.89
2023-01-12T10:43:58.577Z,92.40
2023-01-12T10:46:28.220Z,92.36
2023-01-12T10:49:22.995Z,92.37
2023-01-12T10:52:10.852Z,91.84
2023-01-12T10:54:48.526Z,92.06
2023-01-12T10:57:20.844Z,92.74
2023-01-12T11:00:02.714Z,93.13
2023-01-12T11:02:44.200Z,92.59
2023-01-12T11:05:30.194Z,93.60
2023-01-12T11:07:57.827Z,93.96
2023-01-12T11:10:35.680Z,94.04
2023-01-12T11:13:06.389Z,95.27
2023-01-12T11:15:38.792Z,93.06
2023-01-12T11:18:32.138Z,93.74
2023-01-12T11:21:09.487Z,94.69
2023-01-12T11:23:54.617Z,93.46
2023-01-12T11:26:30.690Z,92.28
2023-01-12T11:29:11.357Z,93.27
2023-01-12T11:31:42.688Z,91.82
2023-01-12T11:34:24.911Z,92.29
2023-01-12T11:37:01.014Z,91.83
2023-01-12T11:39:31.092Z,91.18
2023-01-12T11:42:19.727Z,93.13
2023-01-12T11:45:08.757Z,93.11
2023-01-12T11:47:44.710Z,92.87
2023-01-12T11:50:39.440Z,91.53
2023-01-12T11:53:13.191Z,92.66
2023-01-12T11:56:18.508Z,92.99
2023-01-12T11:59:10.488Z,92.88
2023-01-12T12:01:54.584Z,92.79
2023-01-12T12:05:17.754Z,92.72
2023-01-12T12:07:54.858Z,92.24
2023-01-12T12:10:53.059Z,92.50
2023-01-12T12:13:54.718Z,93.79
2023-01-12T12:17:05.914Z,94.13
2023-01-12T12:20:04.407Z,92.63
2023-01-12T12:23:12.682Z,94.35
2023-01-12T12:26:10.034Z,95.63
2023-01-12T12:29:04.359Z,94.85
2023-01-12T12:32:03.044Z,94.50
2023-01-12T12:35:10.514Z,96.21
2023-01-12T12:38:18.515Z,95.23
2023-01-12T12:41:20.525Z,94.44
2023-01-12T12:44:21.650Z,94.97
2023-01-12T12:47:51.994Z,94.21
2023-01-12T12:50:24.542Z,94.71
2023-01-12T12:53:13.600Z,93.73
2023-01-12T12:55:41.376Z,92.15
2023-01-12T12:58:23.495Z,93.26
2023-01-12T13:00:52.081Z,92.77
2023-01-12T13:03:41.034Z,92.57
2023-01-12T13:06:39.000Z,93.16
2023-01-12T13:09:11.811Z,92.75
2023-01-12T13:12:19.037Z,93.88
2023-01-12T13:15:21.735Z,93.84
2023-01-12T13:17:52.769Z,94.25
2023-01-12T13:20:25.765Z,95.39
2023-01-12T13:22:53.233Z,95.69
2023-01-12T13:25:20.360Z,94.53
2023-01-12T13:28:17.124Z,94.01
2023-01-12T13:30:53.272Z,94.33
2023-01-12T13:33:29.370Z,95.50
2023-01-12T13:36:00.721Z,95.29
2023-01-12T13:39:01.730Z,95.45
2023-01-12T13:41:55.666Z,94.49
2023-01-12T13:44:40.215Z,95.84
2023-01-12T13:47:25.662Z,96.15
2023-01-12T13:49:59.130Z,97.69
2023-01-12T13:52:35.318Z,97.47
2023-01-12T13:55:03.185Z,97.32
2023-01-12T13:57:31.859Z,97.09
2023-01-12T14:00:09.237Z,97.01
2023-01-12T14:02:38.262Z,97.29
2023-01-12T14:05:56.102Z,96.50
2023-01-12T14:09:22.869Z,96.10
2023-01-12T14:12:14.801Z,97.68
2023-01-12T14:15:24.051Z,98.85
2023-01-12T14:17:53.336Z,97.45
2023-01-12T14:20:24.753Z,96.91
2023-01-12T14:23:27.349Z,96.78
2023-01-12T14:26:09.383Z,96.34
2023-01-12T14:28:45.335Z,96.35
2023-01-12T14:31:27.040Z,96.89
2023-01-12T14:33:57.113Z,97.21
2023-01-12T14:36:45.054Z,97.40
2023-01-12T14:39:20.195Z,95.64
2023-01-12T14:42:12.552Z,96.36
2023-01-12T14:45:11.376Z,96.94
2023-01-12T14:47:38.757Z,96.92
2023-01-12T14:50:19.500Z,96.50
2023-01-12T14:52:47.980Z,95.43
2023-01-12T14:55:27.010Z,95.19
2023-01-12T14:57:59.851Z,95.15
2023-01-12T15:00:34.274Z,94.29
2023-01-12T15:03:07.582Z,93.91
2023-01-12T15:05:36.689Z,95.17
2023-01-12T15:08:26.626Z,93.93
2023-01-12T15:11:08.004Z,93.89
2023-01-12T15:13:38.346Z,94.05
2023-01-12T15:16:24.575Z,94.53
2023-01-12T15:19:09.894Z,95.97
2023-01-12T15:21:56.409Z,96.45
2023-01-12T15:24:48.245Z,95.96
2023-01-12T15:27:18.464Z,95.90
2023-01-12T15:29:45.443Z,95.93
2023-01-12T15:32:47.263Z,96.23
2023-01-12T15:35:29.970Z,96.09
2023-01-12T15:37:58.603Z,95.47
2023-01-12T15:40:27.346Z,95.79
2023-01-12T15:42:54.460Z,97.16
2023-01-12T15:45:35.913Z,96.27
2023-01-12T15:48:03.941Z,97.15
2023-01-12T15:50:32.511Z,98.13
2023-01-12T15:53:01.082Z,97.13
2023-01-12T15:55:31.324Z,96.74
2023-01-12T15:57:58.318Z,97.92
2023-01-12T16:00:25.753Z,98.00
2023-01-12T16:02:52.919Z,97.52
2023-01-12T16:05:23.023Z,98.22
2023-01-12T16:07:50.334Z,97.74
2023-01-12T16:10:18.625Z,98.39
2023-01-12T16:12:47.764Z,97.15
2023-01-12T16:15:19.256Z,96.32
2023-01-12T16:17:46.873Z,96.67
2023-01-12T16:20:16.565Z,97.10
2023-01-12T16:22:44.330Z,95.99
2023-01-12T16:25:11.622Z,96.25
2023-01-12T16:27:39.306Z,96.40
2023-01-12T16:30:10.165Z,94.93
2023-01-12T16:32:37.075Z,95.99
2023-01-12T16:35:04.305Z,95.38
2023-01-12T16:37:33.219Z,96.14
2023-01-12T16:40:00.884Z,96.00
2023-01-12T16:42:28.191Z,97.25
2023-01-12T16:44:55.324Z,97.29
2023-01-12T16:47:22.356Z,95.86
2023-01-12T16:49:51.277Z,95.94
2023-01-12T16:52:21.007Z,94.94
2023-01-12T16:54:47.939Z,95.30
2023-01-12T16:57:16.912Z,96.17
2023-01-12T16:59:44.334Z,96.08
2023-01-12T17:02:15.790Z,94.99
2023-01-12T17:04:44.754Z,95.28
2023-01-12T17:07:11.850Z,94.01
2023-01-12T17:09:39.786Z,94.45
2023-01-12T17:12:07.607Z,95.03
2023-01-12T17:14:35.363Z,95.03
2023-01-12T17:17:08.249Z,94.72
2023-01-12T17:19:38.000Z,94.94
2023-01-12T17:22:07.767Z,95.39
2023-01-12T17:24:40.149Z,94.95
2023-01-12T17:27:09.221Z,94.68
2023-01-12T17:29:36.803Z,93.96
2023-01-12T17:32:07.051Z,94.57
2023-01-12T17:34:38.264Z,94.32
2023-01-12T17:37:08.453Z,91.08
2023-01-12T17:39:40.480Z,91.63
2023-01-12T17:42:26.527Z,93.45
2023-01-12T17:44:53.435Z,92.88
2023-01-12T17:47:20.548Z,93.82
2023-01-12T17:49:47.980Z,94.00
2023-01-12T17:52:14.954Z,94.26
2023-01-12T17:54:41.885Z,93.11
2023-01-12T17:57:09.025Z,92.89
2023-01-12T17:59:35.981Z,93.24
2023-01-12T18:02:03.119Z,90.96
2023-01-12T18:04:30.001Z,92.86
2023-01-12T18:06:56.983Z,93.56
2023-01-12T18:09:24.028Z,92.31
2023-01-12T18:11:50.837Z,92.91
2023-01-12T18:14:20.816Z,92.79
2023-01-12T18:16:47.999Z,93.07
2023-01-12T18:19:14.989Z,92.40
2023-01-12T18:21:41.807Z,92.35
2023-01-12T18:24:08.909Z,90.14
2023-01-12T18:26:36.046Z,91.42
2023-01-12T18:29:05.553Z,91.56
2023-01-12T18:31:37.586Z,91.48
2023-01-12T18:34:06.468Z,91.66
2023-01-12T18:36:37.719Z,92.88
2023-01-12T18:39:07.938Z,90.17
2023-01-12T18:41:55.090Z,90.71
2023-01-12T18:44:23.143Z,90.02
2023-01-12T18:47:08.478Z,90.31
2023-01-12T18:49:36.348Z,89.51
2023-01-12T18:52:23.016Z,88.50
2023-01-12T18:54:53.755Z,89.70
2023-01-12T18:57:24.125Z,90.56
2023-01-12T18:59:56.182Z,91.40
2023-01-12T19:02:23.489Z,91.95
2023-01-12T19:04:50.649Z,91.82
2023-01-12T19:07:34.809Z,91.41
2023-01-12T19:10:01.673Z,92.68
2023-01-12T19:12:31.019Z,90.21
2023-01-12T19:15:16.450Z,90.95
2023-01-12T19:17:43.431Z,91.57
2023-01-12T19:20:17.101Z,91.37
2023-01-12T19:23:02.568Z,92.48
2023-01-12T19:25:48.064Z,92.60
2023-01-12T19:28:32.595Z,92.52
2023-01-12T19:31:01.771Z,93.20
2023-01-12T19:33:29.050Z,93.09
2023-01-12T19:35:56.004Z,93.54
2023-01-12T19:38:23.284Z,90.98
2023-01-12T19:40:58.137Z,91.41
2023-01-12T19:43:27.725Z,92.30
2023-01-12T19:46:00.767Z,90.32
2023-01-12T19:48:27.743Z,91.11
2023-01-12T19:50:54.960Z,89.22
2023-01-12T19:53:25.936Z,90.11
2023-01-12T19:55:53.061Z,89.30
2023-01-12T19:58:21.970Z,89.52
2023-01-12T20:00:49.945Z,90.24
2023-01-12T20:03:22.403Z,90.57
2023-01-12T20:05:51.349Z,89.49
2023-01-12T20:08:24.037Z,89.01
2023-01-12T20:10:59.318Z,89.76
2023-01-12T20:13:27.411Z,90.70
2023-01-12T20:15:56.664Z,89.38
2023-01-12T20:18:23.571Z,89.25
2023-01-12T20:20:50.872Z,89.61
2023-01-12T20:23:19.918Z,89.28
2023-01-12T20:25:46.797Z,88.36
2023-01-12T20:28:13.889Z,88.93
2023-01-12T20:30:43.051Z,88.98
2023-01-12T20:33:11.051Z,89.01
2023-01-12T20:35:43.708Z,89.80
2023-01-12T20:38:15.451Z,89.34
2023-01-12T20:40:44.609Z,87.98
2023-01-12T20:43:11.564Z,89.24
2023-01-12T20:45:41.402Z,89.21
2023-01-12T20:48:08.499Z,89.20
2023-01-12T20:50:36.069Z,89.75
2023-01-12T20:53:03.301Z,89.33
2023-01-12T20:55:30.360Z,89.30
2023-01-12T20:57:57.150Z,89.01
2023-01-12T21:00:24.248Z,87.80
2023-01-12T21:02:51.143Z,87.65
2023-01-12T21:05:18.027Z,87.87
2023-01-12T21:07:44.801Z,87.00
2023-01-12T21:10:12.022Z,87.04
2023-01-12T21:12:39.016Z,87.91
2023-01-12T21:15:06.603Z,87.89
2023-01-12T21:17:35.743Z,88.85
2023-01-12T21:20:03.133Z,88.65
2023-01-12T21:22:30.002Z,88.27
2023-01-12T21:24:56.801Z,88.99
2023-01-12T21:27:23.674Z,89.15
2023-01-12T21:29:50.493Z,89.53
2023-01-12T21:32:17.462Z,88.70
2023-01-12T21:34:44.310Z,90.23
2023-01-12T21:37:11.165Z,89.38
2023-01-12T21:39:38.033Z,89.19
2023-01-12T21:42:23.522Z,89.20
2023-01-12T21:44:50.294Z,86.29
2023-01-12T21:47:17.061Z,87.73
2023-01-12T21:49:43.900Z,87.93
2023-01-12T21:52:10.769Z,87.16
2023-01-12T21:54:37.517Z,87.32
2023-01-12T21:57:04.943Z,87.42
2023-01-12T21:59:31.896Z,87.28
2023-01-12T22:01:58.867Z,88.07
2023-01-12T22:04:25.671Z,88.21
2023-01-12T22:06:52.823Z,89.10
2023-01-12T22:09:19.694Z,88.49
2023-01-12T22:11:46.482Z,88.40
2023-01-12T22:14:13.306Z,88.00
2023-01-12T22:16:40.184Z,88.57
2023-01-12T22:19:07.065Z,88.86
2023-01-12T22:21:33.865Z,89.01
2023-01-12T22:24:00.781Z,89.51
2023-01-12T22:26:29.652Z,88.82
2023-01-12T22:28:56.506Z,88.89
2023-01-12T22:31:24.966Z,88.19
2023-01-12T22:33:58.394Z,88.06
2023-01-12T22:36:25.375Z,87.84
2023-01-12T22:38:52.492Z,88.64
2023-01-12T22:41:21.751Z,88.70
2023-01-12T22:43:49.658Z,89.15
2023-01-12T22:46:27.166Z,89.24
2023-01-12T22:48:56.726Z,89.25
2023-01-12T22:51:25.527Z,88.58
2023-01-12T22:53:53.631Z,89.53
2023-01-12T22:56:20.693Z,88.95
2023-01-12T22:58:52.667Z,87.74
2023-01-12T23:01:21.936Z,88.34
2023-01-12T23:03:54.337Z,89.01
2023-01-12T23:06:23.045Z,87.80
2023-01-12T23:08:52.411Z,87.56
2023-01-12T23:11:23.569Z,88.63
2023-01-12T23:13:51.964Z,88.05
2023-01-12T23:16:19.505Z,88.21
2023-01-12T23:18:47.811Z,87.96
2023-01-12T23:21:21.412Z,88.28
2023-01-12T23:23:51.629Z,88.42
2023-01-12T23:26:25.834Z,88.34
2023-01-12T23:28:56.352Z,88.35
2023-01-12T23:31:30.549Z,88.18
2023-01-12T23:33:57.628Z,87.83
2023-01-12T23:36:28.698Z,87.42
2023-01-12T23:39:01.740Z,88.26
2023-01-12T23:41:30.931Z,88.12
2023-01-12T23:44:00.185Z,88.44
2023-01-12T23:46:29.132Z,88.81
2023-01-12T23:48:57.682Z,89.42
2023-01-12T23:51:29.392Z,89.10
2023-01-12T23:54:01.200Z,88.64
2023-01-12T23:56:31.716Z,88.99
2023-01-12T23:58:58.754Z,89.46
